Buoy 53593

sailwx.info

Track history (hours):
 
Tides and Currents Weather Stations Pressure Air Temp Water Temp Dewpoint Dewpoint Depression Visibility Wind Speed Wind Dir Waves Ship Positions

Drifting buoy 53593

Last reported at 2017-Feb-26 15:00 UTC. Time now 2017-Feb-26 19:12 UTC.
Position S 22°44' E 105°25'.

Barometer 1014.3 mb
Water temperature 24.6 ° C

Date/timePositionNaut miles runAvg speedWind from/ knotsBaromVisibWave heightAir tempDewpointWater temp
2017-Feb-26 15:00S 22°44' E 105°25'0 0.0 1014.3 24.6
2017-Feb-26 14:00S 22°44' E 105°25'1 0.6 1014.4 24.7
2017-Feb-26 13:00S 22°45' E 105°25'1 0.6 1014.2 24.7
2017-Feb-26 12:00S 22°46' E 105°25'1 0.6 1013.8 24.7
2017-Feb-26 11:00S 22°46' E 105°25'1 0.8 1012.9 24.7
2017-Feb-26 10:00S 22°46' E 105°25'1 0.8 1012.8 24.7
2017-Feb-26 09:00S 22°47' E 105°25'1 0.4 1013.0 24.7
2017-Feb-26 07:00S 22°47' E 105°24'1 1.3 1013.2 24.7
2017-Feb-26 06:00S 22°48' E 105°23'0 0.0 1013.9 24.7
2017-Feb-26 03:00S 22°48' E 105°23'1 0.4 1015.2 24.6
2017-Feb-26 00:00S 22°49' E 105°22'1 0.4 1014.3 24.6
2017-Feb-25 22:00S 22°50' E 105°22'1 0.6 1013.5 24.6
2017-Feb-25 21:00S 22°50' E 105°21'1 0.6 1013.5 24.6
2017-Feb-25 20:00S 22°50' E 105°21'1 0.3 1013.5 24.6
2017-Feb-25 18:00S 22°50' E 105°20'1 0.2 1014.5 24.6
2017-Feb-25 15:00S 22°51' E 105°20'0 0.0 1015.7 24.6
2017-Feb-25 14:00S 22°51' E 105°20'1 1.3 1015.9 24.6
2017-Feb-25 13:00S 22°52' E 105°20'0 0.0 1015.6 24.6
2017-Feb-25 11:00S 22°52' E 105°20'0 0.0 1014.8 24.7
2017-Feb-25 10:00S 22°52' E 105°20'1 1.3 1014.6 24.7
2017-Feb-25 09:00S 22°53' E 105°19'0 0.0 1014.8 24.7
2017-Feb-25 08:00S 22°53' E 105°19'0 0.0 1015.0 24.7
2017-Feb-25 07:00S 22°53' E 105°19'2 1.6 1015.4 24.7
2017-Feb-25 06:00S 22°55' E 105°18'1 0.2 1016.0 24.7
2017-Feb-25 02:00S 22°55' E 105°18'1 0.6 1017.1 24.6
2017-Feb-25 00:00S 22°56' E 105°17'1 0.6 1016.9 24.6
2017-Feb-24 23:00S 22°56' E 105°17'1 0.8 1016.4 24.6
2017-Feb-24 22:00S 22°56' E 105°17'0 0.0 1016.0 24.6
2017-Feb-24 21:00S 22°56' E 105°17'2 1.0 1015.9 24.6
2017-Feb-24 19:00S 22°58' E 105°15'0 0.0 1016.4 24.6
2017-Feb-24 15:00S 22°58' E 105°15'0 0.0 1017.6 24.6
2017-Feb-24 14:00S 22°58' E 105°15'1 1.1 1017.5 24.6
2017-Feb-24 13:00S 22°58' E 105°14'0 0.0 1017.2 24.6
2017-Feb-24 12:00S 22°58' E 105°14'1 0.6 1016.5 24.6
2017-Feb-24 11:00S 22°58' E 105°14'1 0.6 1016.2 24.7
2017-Feb-24 10:00S 22°58' E 105°14'0 0.0 1015.7 24.7
2017-Feb-24 09:00S 22°58' E 105°14'1 0.4 1016.0 24.7
2017-Feb-24 07:00S 22°59' E 105°14'2 0.3 1016.3 24.7
2017-Feb-24 02:00S 23°00' E 105°13'1 0.8 1018.4 24.6
2017-Feb-24 01:00S 22°59' E 105°12'0 0.0 1018.2 24.5
2017-Feb-24 00:00S 22°59' E 105°12'1 0.6 1018.0 24.5
2017-Feb-23 23:00S 23°00' E 105°12'0 0.0 1017.6 24.5
2017-Feb-23 22:00S 23°00' E 105°12'1 0.6 1017.5 24.5
2017-Feb-23 21:00S 23°00' E 105°11'1 0.3 1017.4 24.5
2017-Feb-23 19:00S 23°00' E 105°11'1 0.3 1017.5 24.5
2017-Feb-23 16:00S 23°01' E 105°10'1 0.3 1018.5 24.5
2017-Feb-23 14:00S 23°01' E 105°11'0 0.0 1018.6 24.6
2017-Feb-23 13:00S 23°01' E 105°11'1 0.4 1018.2 24.6
2017-Feb-23 11:00S 23°00' E 105°10'1 0.6 1016.8 24.6
2017-Feb-23 10:00S 23°01' E 105°10'1 0.6 1016.3 24.6
2017-Feb-23 09:00S 23°01' E 105°11'1 1.1 1016.1 24.6
2017-Feb-23 08:00S 23°01' E 105°10'0 0.0 1016.0 24.7
2017-Feb-23 07:00S 23°01' E 105°10'2 0.4 1016.4 24.6
2017-Feb-23 01:00S 23°01' E 105°07'1 0.4 1017.8 24.5
2017-Feb-22 23:00S 23°00' E 105°08'0 0.0 1016.6 24.5
2017-Feb-22 22:00S 23°00' E 105°08'2 1.6 1016.2 24.5
2017-Feb-22 21:00S 22°59' E 105°07'0 0.0 1015.8 24.5
2017-Feb-22 20:00S 22°59' E 105°07'0 0.0 1015.9 24.5
2017-Feb-22 19:00S 22°59' E 105°07'1 0.6 1016.2 24.5
2017-Feb-22 18:00S 22°58' E 105°07'0 0.0 1016.5 24.5
2017-Feb-22 13:00S 22°58' E 105°07'2 0.8 1017.3 24.6
2017-Feb-22 11:00S 22°57' E 105°08'1 0.4 1016.3 24.6
2017-Feb-22 09:00S 22°58' E 105°07'1 0.8 1015.8 24.6
2017-Feb-22 08:00S 22°57' E 105°08'0 0.0 1016.1 24.6
2017-Feb-22 07:00S 22°57' E 105°08'1 0.1 1016.5 24.7
2017-Feb-22 02:00S 22°57' E 105°07'1 0.6 1018.2 24.6
2017-Feb-22 01:00S 22°57' E 105°07'0 0.0 1018.0 24.6
2017-Feb-22 00:00S 22°57' E 105°07'1 1.3 1017.5 24.5
2017-Feb-21 23:00S 22°56' E 105°08'0 0.0 1016.7 24.6
2017-Feb-21 22:00S 22°56' E 105°08'1 0.6 1016.3 24.6
2017-Feb-21 21:00S 22°56' E 105°07'1 0.8 1016.1 24.6
2017-Feb-21 20:00S 22°56' E 105°07'1 1.2 1015.9 24.6
2017-Feb-21 19:00S 22°55' E 105°07'1 0.2 1015.8 24.6
2017-Feb-21 15:00S 22°55' E 105°06'2 1.6 1017.4 24.6
2017-Feb-21 14:00S 22°54' E 105°07'0 0.0 1017.2 24.6
2017-Feb-21 13:00S 22°54' E 105°07'1 0.6 1017.0 24.6
2017-Feb-21 12:00S 22°54' E 105°07'3 1.4 1016.3 24.6
2017-Feb-21 10:00S 22°52' E 105°09'0 0.0 1015.3 24.7
2017-Feb-21 09:00S 22°52' E 105°09'0 0.0 1015.0 24.7
2017-Feb-21 08:00S 22°52' E 105°09'1 0.3 1015.0 24.7
2017-Feb-21 05:00S 22°52' E 105°10'1 0.1 1015.8 24.7
2017-Feb-21 01:00S 22°51' E 105°10'2 1.7 1016.1 24.7
2017-Feb-21 00:00S 22°51' E 105°11'1 1.1 1015.6 24.7
2017-Feb-20 23:00S 22°51' E 105°13'1 0.4 1014.6 24.7
2017-Feb-20 21:00S 22°52' E 105°13'0 0.0 1013.9 24.7
2017-Feb-20 20:00S 22°52' E 105°13'1 0.2 1013.7 24.7
2017-Feb-20 17:00S 22°52' E 105°13'1 0.4 1014.2 24.7
2017-Feb-20 15:00S 22°52' E 105°13'0 0.0 1014.3 24.7
2017-Feb-20 14:00S 22°52' E 105°13'1 0.6 1014.2 24.7
2017-Feb-20 13:00S 22°52' E 105°13'0 0.0 1013.8 24.7
2017-Feb-20 12:00S 22°52' E 105°13'1 0.4 1012.9 24.8
2017-Feb-20 10:00S 22°51' E 105°14'0 0.0 1011.8 24.8
2017-Feb-20 09:00S 22°51' E 105°14'0 0.0 1011.4 24.8
2017-Feb-20 08:00S 22°51' E 105°14'0 0.0 1011.4 24.8
2017-Feb-20 06:00S 22°51' E 105°14'1 0.2 1012.2 24.8
2017-Feb-20 03:00S 22°51' E 105°13'0 0.0 1013.0 24.8
2017-Feb-20 02:00S 22°51' E 105°13'0 0.0 1013.2 24.8
2017-Feb-20 00:00S 22°51' E 105°13'1 1.3 1013.4 24.7
2017-Feb-19 23:00S 22°50' E 105°14'0 0.0 1012.8 24.7
2017-Feb-19 22:00S 22°50' E 105°14'0 0.0 1012.4 24.8
2017-Feb-19 21:00S 22°50' E 105°14'0 0.0 1012.0 24.8
2017-Feb-19 20:00S 22°50' E 105°14'0 0.0 1012.0 24.8
2017-Feb-19 19:00S 22°50' E 105°14'0 0.0 1012.4 24.8
2017-Feb-19 18:00S 22°50' E 105°14'1 0.6 1012.7 24.8
2017-Feb-19 17:00S 22°51' E 105°14'1 0.3 1012.9 24.8
2017-Feb-19 15:00S 22°50' E 105°14'0 0.0 1013.4 24.8
2017-Feb-19 14:00S 22°50' E 105°14'0 0.0 1013.4 24.8
2017-Feb-19 13:00S 22°50' E 105°14'0 0.0 1013.0 24.8
2017-Feb-19 12:00S 22°50' E 105°14'0 0.0 1012.5 24.8
2017-Feb-19 11:00S 22°50' E 105°14'1 1.3 1011.8 24.8
2017-Feb-19 10:00S 22°50' E 105°16'1 0.6 1011.1 24.8
2017-Feb-19 09:00S 22°50' E 105°16'0 0.0 1011.0 24.9
2017-Feb-19 08:00S 22°50' E 105°16'0 0.0 1011.1 24.9
2017-Feb-19 07:00S 22°50' E 105°16'0 0.0 1011.4 24.8
2017-Feb-19 06:00S 22°50' E 105°16'0 0.0 1012.2 24.8
2017-Feb-19 02:00S 22°50' E 105°16'1 0.4 1013.3 24.8
2017-Feb-19 00:00S 22°51' E 105°15'1 0.6 1013.3 24.7
2017-Feb-18 23:00S 22°51' E 105°16'1 1.1 1013.1 24.7
2017-Feb-18 22:00S 22°51' E 105°17'0 0.0 1012.7 24.7
2017-Feb-18 21:00S 22°51' E 105°17'0 0.0 1012.4 24.7
2017-Feb-18 20:00S 22°51' E 105°17'1 0.3 1012.6 24.7
2017-Feb-18 18:00S 22°51' E 105°17'0 0.0 1012.9 24.7
2017-Feb-18 17:00S 22°51' E 105°17'2 1.9 1013.2 24.8
2017-Feb-18 16:00S 22°53' E 105°18'1 0.6 1013.6 24.8
2017-Feb-18 14:00S 22°53' E 105°17'1 0.6 1013.9 24.8
2017-Feb-18 13:00S 22°53' E 105°17'1 0.8 1013.4 24.9
2017-Feb-18 12:00S 22°53' E 105°16'1 0.6 1012.9 24.9
2017-Feb-18 11:00S 22°53' E 105°16'1 0.8 1012.6 24.9
2017-Feb-18 10:00S 22°54' E 105°17'0 0.0 1012.2 25.0
2017-Feb-18 09:00S 22°54' E 105°17'1 0.4 1011.9 25.0
2017-Feb-18 07:00S 22°55' E 105°16'1 1.3 1012.4 24.9
2017-Feb-18 06:00S 22°55' E 105°15'1 0.1 1012.8 24.9
2017-Feb-18 02:00S 22°55' E 105°14'1 0.4 1014.3 24.8
2017-Feb-18 00:00S 22°55' E 105°14'0 0.0 1014.2 24.7
2017-Feb-17 23:00S 22°55' E 105°14'0 0.0 1013.4 24.7
2017-Feb-17 22:00S 22°55' E 105°14'2 1.7 1013.0 24.8
2017-Feb-17 21:00S 22°55' E 105°16'0 0.0 1012.8 24.8
2017-Feb-17 20:00S 22°55' E 105°16'0 0.0 1012.9 24.8
2017-Feb-17 18:00S 22°55' E 105°16'1 0.3 1013.4 24.9
2017-Feb-17 15:00S 22°55' E 105°16'1 0.8 1014.1 24.9
2017-Feb-17 14:00S 22°56' E 105°16'1 0.8 1013.9 24.9
2017-Feb-17 13:00S 22°56' E 105°15'0 0.0 1013.6 24.9
2017-Feb-17 12:00S 22°56' E 105°15'0 0.0 1013.3 25.0
2017-Feb-17 11:00S 22°56' E 105°15'0 0.0 1012.9 25.0
2017-Feb-17 10:00S 22°56' E 105°15'1 0.8 1012.5 25.0
2017-Feb-17 09:00S 22°57' E 105°14'0 0.0 1012.4 25.0
2017-Feb-17 08:00S 22°57' E 105°14'0 0.0 1012.5 25.0
2017-Feb-17 07:00S 22°57' E 105°14'1 1.1 1012.6 25.0
2017-Feb-17 06:00S 22°57' E 105°13'0 0.0 1013.0 24.9
2017-Feb-17 03:00S 22°57' E 105°13'2 0.6 1014.1 24.8
2017-Feb-17 00:00S 22°56' E 105°11'1 0.6 1013.2 24.8
2017-Feb-16 23:00S 22°56' E 105°11'1 0.6 1012.7 24.8
2017-Feb-16 22:00S 22°55' E 105°11'0 0.0 1012.8 24.8
2017-Feb-16 21:00S 22°55' E 105°11'1 0.8 1012.8 24.8
2017-Feb-16 20:00S 22°55' E 105°12'0 0.0 1012.5 24.8
2017-Feb-16 19:00S 22°55' E 105°12'1 0.6 1012.9 24.8
2017-Feb-16 18:00S 22°55' E 105°11'1 0.3 1013.0 24.8
2017-Feb-16 15:00S 22°54' E 105°12'   1013.0 24.8
Track history (hours):
 
Tides and Currents Weather Stations Pressure Air Temp Water Temp Dewpoint Dewpoint Depression Visibility Wind Speed Wind Dir Waves Ship Positions

Drifting buoy 53593

Last reported at 2017-Feb-26 15:00 UTC. Time now 2017-Feb-26 19:12 UTC.
Position S 22°44' E 105°25'.

Barometer 1014.3 mb
Water temperature 24.6 ° C

Date/timePositionNaut miles runAvg speedWind from/ knotsBaromVisibWave heightAir tempDewpointWater temp
2017-Feb-26 15:00S 22°44' E 105°25'0 0.0 1014.3 24.6
2017-Feb-26 14:00S 22°44' E 105°25'1 0.6 1014.4 24.7
2017-Feb-26 13:00S 22°45' E 105°25'1 0.6 1014.2 24.7
2017-Feb-26 12:00S 22°46' E 105°25'1 0.6 1013.8 24.7
2017-Feb-26 11:00S 22°46' E 105°25'1 0.8 1012.9 24.7
2017-Feb-26 10:00S 22°46' E 105°25'1 0.8 1012.8 24.7
2017-Feb-26 09:00S 22°47' E 105°25'1 0.4 1013.0 24.7
2017-Feb-26 07:00S 22°47' E 105°24'1 1.3 1013.2 24.7
2017-Feb-26 06:00S 22°48' E 105°23'0 0.0 1013.9 24.7
2017-Feb-26 03:00S 22°48' E 105°23'1 0.4 1015.2 24.6
2017-Feb-26 00:00S 22°49' E 105°22'1 0.4 1014.3 24.6
2017-Feb-25 22:00S 22°50' E 105°22'1 0.6 1013.5 24.6
2017-Feb-25 21:00S 22°50' E 105°21'1 0.6 1013.5 24.6
2017-Feb-25 20:00S 22°50' E 105°21'1 0.3 1013.5 24.6
2017-Feb-25 18:00S 22°50' E 105°20'1 0.2 1014.5 24.6
2017-Feb-25 15:00S 22°51' E 105°20'0 0.0 1015.7 24.6
2017-Feb-25 14:00S 22°51' E 105°20'1 1.3 1015.9 24.6
2017-Feb-25 13:00S 22°52' E 105°20'0 0.0 1015.6 24.6
2017-Feb-25 11:00S 22°52' E 105°20'0 0.0 1014.8 24.7
2017-Feb-25 10:00S 22°52' E 105°20'1 1.3 1014.6 24.7
2017-Feb-25 09:00S 22°53' E 105°19'0 0.0 1014.8 24.7
2017-Feb-25 08:00S 22°53' E 105°19'0 0.0 1015.0 24.7
2017-Feb-25 07:00S 22°53' E 105°19'2 1.6 1015.4 24.7
2017-Feb-25 06:00S 22°55' E 105°18'1 0.2 1016.0 24.7
2017-Feb-25 02:00S 22°55' E 105°18'1 0.6 1017.1 24.6
2017-Feb-25 00:00S 22°56' E 105°17'1 0.6 1016.9 24.6
2017-Feb-24 23:00S 22°56' E 105°17'1 0.8 1016.4 24.6
2017-Feb-24 22:00S 22°56' E 105°17'0 0.0 1016.0 24.6
2017-Feb-24 21:00S 22°56' E 105°17'2 1.0 1015.9 24.6
2017-Feb-24 19:00S 22°58' E 105°15'0 0.0 1016.4 24.6
2017-Feb-24 15:00S 22°58' E 105°15'0 0.0 1017.6 24.6
2017-Feb-24 14:00S 22°58' E 105°15'1 1.1 1017.5 24.6
2017-Feb-24 13:00S 22°58' E 105°14'0 0.0 1017.2 24.6
2017-Feb-24 12:00S 22°58' E 105°14'1 0.6 1016.5 24.6
2017-Feb-24 11:00S 22°58' E 105°14'1 0.6 1016.2 24.7
2017-Feb-24 10:00S 22°58' E 105°14'0 0.0 1015.7 24.7
2017-Feb-24 09:00S 22°58' E 105°14'1 0.4 1016.0 24.7
2017-Feb-24 07:00S 22°59' E 105°14'2 0.3 1016.3 24.7
2017-Feb-24 02:00S 23°00' E 105°13'1 0.8 1018.4 24.6
2017-Feb-24 01:00S 22°59' E 105°12'0 0.0 1018.2 24.5
2017-Feb-24 00:00S 22°59' E 105°12'1 0.6 1018.0 24.5
2017-Feb-23 23:00S 23°00' E 105°12'0 0.0 1017.6 24.5
2017-Feb-23 22:00S 23°00' E 105°12'1 0.6 1017.5 24.5
2017-Feb-23 21:00S 23°00' E 105°11'1 0.3 1017.4 24.5
2017-Feb-23 19:00S 23°00' E 105°11'1 0.3 1017.5 24.5
2017-Feb-23 16:00S 23°01' E 105°10'1 0.3 1018.5 24.5
2017-Feb-23 14:00S 23°01' E 105°11'0 0.0 1018.6 24.6
2017-Feb-23 13:00S 23°01' E 105°11'1 0.4 1018.2 24.6
2017-Feb-23 11:00S 23°00' E 105°10'1 0.6 1016.8 24.6
2017-Feb-23 10:00S 23°01' E 105°10'1 0.6 1016.3 24.6
2017-Feb-23 09:00S 23°01' E 105°11'1 1.1 1016.1 24.6
2017-Feb-23 08:00S 23°01' E 105°10'0 0.0 1016.0 24.7
2017-Feb-23 07:00S 23°01' E 105°10'2 0.4 1016.4 24.6
2017-Feb-23 01:00S 23°01' E 105°07'1 0.4 1017.8 24.5
2017-Feb-22 23:00S 23°00' E 105°08'0 0.0 1016.6 24.5
2017-Feb-22 22:00S 23°00' E 105°08'2 1.6 1016.2 24.5
2017-Feb-22 21:00S 22°59' E 105°07'0 0.0 1015.8 24.5
2017-Feb-22 20:00S 22°59' E 105°07'0 0.0 1015.9 24.5
2017-Feb-22 19:00S 22°59' E 105°07'1 0.6 1016.2 24.5
2017-Feb-22 18:00S 22°58' E 105°07'0 0.0 1016.5 24.5
2017-Feb-22 13:00S 22°58' E 105°07'2 0.8 1017.3 24.6
2017-Feb-22 11:00S 22°57' E 105°08'1 0.4 1016.3 24.6
2017-Feb-22 09:00S 22°58' E 105°07'1 0.8 1015.8 24.6
2017-Feb-22 08:00S 22°57' E 105°08'0 0.0 1016.1 24.6
2017-Feb-22 07:00S 22°57' E 105°08'1 0.1 1016.5 24.7
2017-Feb-22 02:00S 22°57' E 105°07'1 0.6 1018.2 24.6
2017-Feb-22 01:00S 22°57' E 105°07'0 0.0 1018.0 24.6
2017-Feb-22 00:00S 22°57' E 105°07'1 1.3 1017.5 24.5
2017-Feb-21 23:00S 22°56' E 105°08'0 0.0 1016.7 24.6
2017-Feb-21 22:00S 22°56' E 105°08'1 0.6 1016.3 24.6
2017-Feb-21 21:00S 22°56' E 105°07'1 0.8 1016.1 24.6
2017-Feb-21 20:00S 22°56' E 105°07'1 1.2 1015.9 24.6
2017-Feb-21 19:00S 22°55' E 105°07'1 0.2 1015.8 24.6
2017-Feb-21 15:00S 22°55' E 105°06'2 1.6 1017.4 24.6
2017-Feb-21 14:00S 22°54' E 105°07'0 0.0 1017.2 24.6
2017-Feb-21 13:00S 22°54' E 105°07'1 0.6 1017.0 24.6
2017-Feb-21 12:00S 22°54' E 105°07'3 1.4 1016.3 24.6
2017-Feb-21 10:00S 22°52' E 105°09'0 0.0 1015.3 24.7
2017-Feb-21 09:00S 22°52' E 105°09'0 0.0 1015.0 24.7
2017-Feb-21 08:00S 22°52' E 105°09'1 0.3 1015.0 24.7
2017-Feb-21 05:00S 22°52' E 105°10'1 0.1 1015.8 24.7
2017-Feb-21 01:00S 22°51' E 105°10'2 1.7 1016.1 24.7
2017-Feb-21 00:00S 22°51' E 105°11'1 1.1 1015.6 24.7
2017-Feb-20 23:00S 22°51' E 105°13'1 0.4 1014.6 24.7
2017-Feb-20 21:00S 22°52' E 105°13'0 0.0 1013.9 24.7
2017-Feb-20 20:00S 22°52' E 105°13'1 0.2 1013.7 24.7
2017-Feb-20 17:00S 22°52' E 105°13'1 0.4 1014.2 24.7
2017-Feb-20 15:00S 22°52' E 105°13'0 0.0 1014.3 24.7
2017-Feb-20 14:00S 22°52' E 105°13'1 0.6 1014.2 24.7
2017-Feb-20 13:00S 22°52' E 105°13'0 0.0 1013.8 24.7
2017-Feb-20 12:00S 22°52' E 105°13'1 0.4 1012.9 24.8
2017-Feb-20 10:00S 22°51' E 105°14'0 0.0 1011.8 24.8
2017-Feb-20 09:00S 22°51' E 105°14'0 0.0 1011.4 24.8
2017-Feb-20 08:00S 22°51' E 105°14'0 0.0 1011.4 24.8
2017-Feb-20 06:00S 22°51' E 105°14'1 0.2 1012.2 24.8
2017-Feb-20 03:00S 22°51' E 105°13'0 0.0 1013.0 24.8
2017-Feb-20 02:00S 22°51' E 105°13'0 0.0 1013.2 24.8
2017-Feb-20 00:00S 22°51' E 105°13'1 1.3 1013.4 24.7
2017-Feb-19 23:00S 22°50' E 105°14'0 0.0 1012.8 24.7
2017-Feb-19 22:00S 22°50' E 105°14'0 0.0 1012.4 24.8
2017-Feb-19 21:00S 22°50' E 105°14'0 0.0 1012.0 24.8
2017-Feb-19 20:00S 22°50' E 105°14'0 0.0 1012.0 24.8
2017-Feb-19 19:00S 22°50' E 105°14'0 0.0 1012.4 24.8
2017-Feb-19 18:00S 22°50' E 105°14'1 0.6 1012.7 24.8
2017-Feb-19 17:00S 22°51' E 105°14'1 0.3 1012.9 24.8
2017-Feb-19 15:00S 22°50' E 105°14'0 0.0 1013.4 24.8
2017-Feb-19 14:00S 22°50' E 105°14'0 0.0 1013.4 24.8
2017-Feb-19 13:00S 22°50' E 105°14'0 0.0 1013.0 24.8
2017-Feb-19 12:00S 22°50' E 105°14'0 0.0 1012.5 24.8
2017-Feb-19 11:00S 22°50' E 105°14'1 1.3 1011.8 24.8
2017-Feb-19 10:00S 22°50' E 105°16'1 0.6 1011.1 24.8
2017-Feb-19 09:00S 22°50' E 105°16'0 0.0 1011.0 24.9
2017-Feb-19 08:00S 22°50' E 105°16'0 0.0 1011.1 24.9
2017-Feb-19 07:00S 22°50' E 105°16'0 0.0 1011.4 24.8
2017-Feb-19 06:00S 22°50' E 105°16'0 0.0 1012.2 24.8
2017-Feb-19 02:00S 22°50' E 105°16'1 0.4 1013.3 24.8
2017-Feb-19 00:00S 22°51' E 105°15'1 0.6 1013.3 24.7
2017-Feb-18 23:00S 22°51' E 105°16'1 1.1 1013.1 24.7
2017-Feb-18 22:00S 22°51' E 105°17'0 0.0 1012.7 24.7
2017-Feb-18 21:00S 22°51' E 105°17'0 0.0 1012.4 24.7
2017-Feb-18 20:00S 22°51' E 105°17'1 0.3 1012.6 24.7
2017-Feb-18 18:00S 22°51' E 105°17'0 0.0 1012.9 24.7
2017-Feb-18 17:00S 22°51' E 105°17'2 1.9 1013.2 24.8
2017-Feb-18 16:00S 22°53' E 105°18'1 0.6 1013.6 24.8
2017-Feb-18 14:00S 22°53' E 105°17'1 0.6 1013.9 24.8
2017-Feb-18 13:00S 22°53' E 105°17'1 0.8 1013.4 24.9
2017-Feb-18 12:00S 22°53' E 105°16'1 0.6 1012.9 24.9
2017-Feb-18 11:00S 22°53' E 105°16'1 0.8 1012.6 24.9
2017-Feb-18 10:00S 22°54' E 105°17'0 0.0 1012.2 25.0
2017-Feb-18 09:00S 22°54' E 105°17'1 0.4 1011.9 25.0
2017-Feb-18 07:00S 22°55' E 105°16'1 1.3 1012.4 24.9
2017-Feb-18 06:00S 22°55' E 105°15'1 0.1 1012.8 24.9
2017-Feb-18 02:00S 22°55' E 105°14'1 0.4 1014.3 24.8
2017-Feb-18 00:00S 22°55' E 105°14'0 0.0 1014.2 24.7
2017-Feb-17 23:00S 22°55' E 105°14'0 0.0 1013.4 24.7
2017-Feb-17 22:00S 22°55' E 105°14'2 1.7 1013.0 24.8
2017-Feb-17 21:00S 22°55' E 105°16'0 0.0 1012.8 24.8
2017-Feb-17 20:00S 22°55' E 105°16'0 0.0 1012.9 24.8
2017-Feb-17 18:00S 22°55' E 105°16'1 0.3 1013.4 24.9
2017-Feb-17 15:00S 22°55' E 105°16'1 0.8 1014.1 24.9
2017-Feb-17 14:00S 22°56' E 105°16'1 0.8 1013.9 24.9
2017-Feb-17 13:00S 22°56' E 105°15'0 0.0 1013.6 24.9
2017-Feb-17 12:00S 22°56' E 105°15'0 0.0 1013.3 25.0
2017-Feb-17 11:00S 22°56' E 105°15'0 0.0 1012.9 25.0
2017-Feb-17 10:00S 22°56' E 105°15'1 0.8 1012.5 25.0
2017-Feb-17 09:00S 22°57' E 105°14'0 0.0 1012.4 25.0
2017-Feb-17 08:00S 22°57' E 105°14'0 0.0 1012.5 25.0
2017-Feb-17 07:00S 22°57' E 105°14'1 1.1 1012.6 25.0
2017-Feb-17 06:00S 22°57' E 105°13'0 0.0 1013.0 24.9
2017-Feb-17 03:00S 22°57' E 105°13'2 0.6 1014.1 24.8
2017-Feb-17 00:00S 22°56' E 105°11'1 0.6 1013.2 24.8
2017-Feb-16 23:00S 22°56' E 105°11'1 0.6 1012.7 24.8
2017-Feb-16 22:00S 22°55' E 105°11'0 0.0 1012.8 24.8
2017-Feb-16 21:00S 22°55' E 105°11'1 0.8 1012.8 24.8
2017-Feb-16 20:00S 22°55' E 105°12'0 0.0 1012.5 24.8
2017-Feb-16 19:00S 22°55' E 105°12'1 0.6 1012.9 24.8
2017-Feb-16 18:00S 22°55' E 105°11'1 0.3 1013.0 24.8
2017-Feb-16 15:00S 22°54' E 105°12'   1013.0 24.8

Dump ship's entire track history